sensor_id;sensor_type;location;lat;lon;timestamp;temperature;humidity
6627;DHT22;3349;49.830;8.748;2022-10-17T00:00:43;12.50;99.90
6627;DHT22;3349;49.830;8.748;2022-10-17T00:03:12;12.40;99.90
6627;DHT22;3349;49.830;8.748;2022-10-17T00:05:39;12.40;99.90
6627;DHT22;3349;49.830;8.748;2022-10-17T00:08:07;12.40;99.90
6627;DHT22;3349;49.830;8.748;2022-10-17T00:10:33;12.40;99.90
6627;DHT22;3349;49.830;8.748;2022-10-17T00:13:00;12.40;99.90
6627;DHT22;3349;49.830;8.748;2022-10-17T00:15:28;12.40;99.90
6627;DHT22;3349;49.830;8.748;2022-10-17T00:17:55;12.40;99.90
6627;DHT22;3349;49.830;8.748;2022-10-17T00:20:22;12.40;99.90
6627;DHT22;3349;49.830;8.748;2022-10-17T00:22:49;12.40;99.90
6627;DHT22;3349;49.830;8.748;2022-10-17T00:25:16;12.30;99.90
6627;DHT22;3349;49.830;8.748;2022-10-17T00:27:44;12.30;99.90
6627;DHT22;3349;49.830;8.748;2022-10-17T00:30:13;12.40;99.90
6627;DHT22;3349;49.830;8.748;2022-10-17T00:32:41;12.40;99.90
6627;DHT22;3349;49.830;8.748;2022-10-17T00:35:08;12.40;99.90
6627;DHT22;3349;49.830;8.748;2022-10-17T00:37:35;12.30;99.90
6627;DHT22;3349;49.830;8.748;2022-10-17T00:40:03;12.30;99.90
6627;DHT22;3349;49.830;8.748;2022-10-17T00:42:31;12.20;99.90
6627;DHT22;3349;49.830;8.748;2022-10-17T00:45:14;12.20;99.90
6627;DHT22;3349;49.830;8.748;2022-10-17T00:47:45;12.20;99.90
6627;DHT22;3349;49.830;8.748;2022-10-17T00:50:12;12.20;99.90
6627;DHT22;3349;49.830;8.748;2022-10-17T00:52:40;12.20;99.90
6627;DHT22;3349;49.830;8.748;2022-10-17T00:55:11;12.20;99.90
6627;DHT22;3349;49.830;8.748;2022-10-17T00:57:40;12.20;99.90
6627;DHT22;3349;49.830;8.748;2022-10-17T01:00:09;12.20;99.90
6627;DHT22;3349;49.830;8.748;2022-10-17T01:02:37;12.20;99.90
6627;DHT22;3349;49.830;8.748;2022-10-17T01:05:06;12.20;99.90
6627;DHT22;3349;49.830;8.748;2022-10-17T01:07:34;12.10;99.90
6627;DHT22;3349;49.830;8.748;2022-10-17T01:10:01;12.10;99.90
6627;DHT22;3349;49.830;8.748;2022-10-17T01:12:32;12.20;99.90
6627;DHT22;3349;49.830;8.748;2022-10-17T01:15:10;12.20;99.90
6627;DHT22;3349;49.830;8.748;2022-10-17T01:17:45;12.10;99.90
6627;DHT22;3349;49.830;8.748;2022-10-17T01:20:40;12.10;99.90
6627;DHT22;3349;49.830;8.748;2022-10-17T01:23:28;12.10;99.90
6627;DHT22;3349;49.830;8.748;2022-10-17T01:26:01;12.10;99.90
6627;DHT22;3349;49.830;8.748;2022-10-17T01:28:58;12.10;99.90
6627;DHT22;3349;49.830;8.748;2022-10-17T01:31:34;12.10;99.90
6627;DHT22;3349;49.830;8.748;2022-10-17T01:34:07;12.10;99.90
6627;DHT22;3349;49.830;8.748;2022-10-17T01:36:39;12.20;99.90
6627;DHT22;3349;49.830;8.748;2022-10-17T01:39:15;12.10;99.90
6627;DHT22;3349;49.830;8.748;2022-10-17T01:41:48;12.10;99.90
6627;DHT22;3349;49.830;8.748;2022-10-17T01:44:19;12.10;99.90
6627;DHT22;3349;49.830;8.748;2022-10-17T01:46:51;12.10;99.90
6627;DHT22;3349;49.830;8.748;2022-10-17T01:49:23;12.10;99.90
6627;DHT22;3349;49.830;8.748;2022-10-17T01:51:53;12.00;99.90
6627;DHT22;3349;49.830;8.748;2022-10-17T01:54:24;12.10;99.90
6627;DHT22;3349;49.830;8.748;2022-10-17T01:56:56;12.10;99.90
6627;DHT22;3349;49.830;8.748;2022-10-17T01:59:26;12.10;99.90
6627;DHT22;3349;49.830;8.748;2022-10-17T02:01:57;12.10;99.90
6627;DHT22;3349;49.830;8.748;2022-10-17T02:04:25;12.10;99.90
6627;DHT22;3349;49.830;8.748;2022-10-17T02:06:52;12.10;99.90
6627;DHT22;3349;49.830;8.748;2022-10-17T02:09:21;12.10;99.90
6627;DHT22;3349;49.830;8.748;2022-10-17T02:11:55;12.00;99.90
6627;DHT22;3349;49.830;8.748;2022-10-17T02:14:31;12.00;99.90
6627;DHT22;3349;49.830;8.748;2022-10-17T02:17:08;12.00;99.90
6627;DHT22;3349;49.830;8.748;2022-10-17T02:19:45;12.10;99.90
6627;DHT22;3349;49.830;8.748;2022-10-17T02:22:21;12.10;99.90
6627;DHT22;3349;49.830;8.748;2022-10-17T02:24:51;12.10;99.90
6627;DHT22;3349;49.830;8.748;2022-10-17T02:27:26;12.10;99.90
6627;DHT22;3349;49.830;8.748;2022-10-17T02:29:57;12.10;99.90
6627;DHT22;3349;49.830;8.748;2022-10-17T02:32:34;12.10;99.90
6627;DHT22;3349;49.830;8.748;2022-10-17T02:35:04;12.10;99.90
6627;DHT22;3349;49.830;8.748;2022-10-17T02:37:33;12.10;99.90
6627;DHT22;3349;49.830;8.748;2022-10-17T02:40:02;12.10;99.90
6627;DHT22;3349;49.830;8.748;2022-10-17T02:42:30;12.10;99.90
6627;DHT22;3349;49.830;8.748;2022-10-17T02:44:58;12.10;99.90
6627;DHT22;3349;49.830;8.748;2022-10-17T02:47:31;12.10;99.90
6627;DHT22;3349;49.830;8.748;2022-10-17T02:50:00;12.20;99.90
6627;DHT22;3349;49.830;8.748;2022-10-17T02:52:32;12.20;99.90
6627;DHT22;3349;49.830;8.748;2022-10-17T02:55:05;12.30;99.90
6627;DHT22;3349;49.830;8.748;2022-10-17T02:57:35;12.30;99.90
6627;DHT22;3349;49.830;8.748;2022-10-17T03:00:05;12.30;99.90
6627;DHT22;3349;49.830;8.748;2022-10-17T03:02:40;12.30;99.90
6627;DHT22;3349;49.830;8.748;2022-10-17T03:05:08;12.40;99.90
6627;DHT22;3349;49.830;8.748;2022-10-17T03:07:35;12.40;99.90
6627;DHT22;3349;49.830;8.748;2022-10-17T03:10:02;12.40;99.90
6627;DHT22;3349;49.830;8.748;2022-10-17T03:12:29;12.40;99.90
6627;DHT22;3349;49.830;8.748;2022-10-17T03:14:55;12.30;99.90
6627;DHT22;3349;49.830;8.748;2022-10-17T03:17:22;12.30;99.90
6627;DHT22;3349;49.830;8.748;2022-10-17T03:19:50;12.30;99.90
6627;DHT22;3349;49.830;8.748;2022-10-17T03:22:17;12.30;99.90
6627;DHT22;3349;49.830;8.748;2022-10-17T03:24:44;12.40;99.90
6627;DHT22;3349;49.830;8.748;2022-10-17T03:27:10;12.30;99.90
6627;DHT22;3349;49.830;8.748;2022-10-17T03:29:37;12.40;99.90
6627;DHT22;3349;49.830;8.748;2022-10-17T03:32:04;12.30;99.90
6627;DHT22;3349;49.830;8.748;2022-10-17T03:34:31;12.40;99.90
6627;DHT22;3349;49.830;8.748;2022-10-17T03:36:59;12.40;99.90
6627;DHT22;3349;49.830;8.748;2022-10-17T03:39:26;12.40;99.90
6627;DHT22;3349;49.830;8.748;2022-10-17T03:41:52;12.40;99.90
6627;DHT22;3349;49.830;8.748;2022-10-17T03:44:19;12.50;99.90
6627;DHT22;3349;49.830;8.748;2022-10-17T03:46:46;12.50;99.90
6627;DHT22;3349;49.830;8.748;2022-10-17T03:49:12;12.50;99.90
6627;DHT22;3349;49.830;8.748;2022-10-17T03:51:39;12.50;99.90
6627;DHT22;3349;49.830;8.748;2022-10-17T03:54:07;12.60;99.90
6627;DHT22;3349;49.830;8.748;2022-10-17T03:56:34;12.70;99.90
6627;DHT22;3349;49.830;8.748;2022-10-17T03:59:01;12.70;99.90
6627;DHT22;3349;49.830;8.748;2022-10-17T04:01:27;12.80;99.90
6627;DHT22;3349;49.830;8.748;2022-10-17T04:03:55;12.80;99.90
6627;DHT22;3349;49.830;8.748;2022-10-17T04:06:22;12.80;99.90
6627;DHT22;3349;49.830;8.748;2022-10-17T04:08:49;12.80;99.90
6627;DHT22;3349;49.830;8.748;2022-10-17T04:11:19;12.90;99.90
6627;DHT22;3349;49.830;8.748;2022-10-17T04:13:46;12.90;99.90
6627;DHT22;3349;49.830;8.748;2022-10-17T04:16:15;12.80;99.90
6627;DHT22;3349;49.830;8.748;2022-10-17T04:18:42;12.80;99.90
6627;DHT22;3349;49.830;8.748;2022-10-17T04:21:10;12.90;99.90
6627;DHT22;3349;49.830;8.748;2022-10-17T04:23:38;12.90;99.90
6627;DHT22;3349;49.830;8.748;2022-10-17T04:26:05;12.90;99.90
6627;DHT22;3349;49.830;8.748;2022-10-17T04:28:34;12.90;99.90
6627;DHT22;3349;49.830;8.748;2022-10-17T04:31:02;12.80;99.90
6627;DHT22;3349;49.830;8.748;2022-10-17T04:33:30;12.80;99.90
6627;DHT22;3349;49.830;8.748;2022-10-17T04:35:57;12.90;99.90
6627;DHT22;3349;49.830;8.748;2022-10-17T04:38:24;12.80;99.90
6627;DHT22;3349;49.830;8.748;2022-10-17T04:40:51;12.80;99.90
6627;DHT22;3349;49.830;8.748;2022-10-17T04:43:18;12.70;99.90
6627;DHT22;3349;49.830;8.748;2022-10-17T04:45:46;12.70;99.90
6627;DHT22;3349;49.830;8.748;2022-10-17T04:48:13;12.60;99.90
6627;DHT22;3349;49.830;8.748;2022-10-17T04:50:40;12.60;99.90
6627;DHT22;3349;49.830;8.748;2022-10-17T04:53:07;12.50;99.90
6627;DHT22;3349;49.830;8.748;2022-10-17T04:55:36;12.50;99.90
6627;DHT22;3349;49.830;8.748;2022-10-17T04:58:03;12.50;99.90
6627;DHT22;3349;49.830;8.748;2022-10-17T05:00:30;12.40;99.90
6627;DHT22;3349;49.830;8.748;2022-10-17T05:02:58;12.40;99.90
6627;DHT22;3349;49.830;8.748;2022-10-17T05:05:25;12.40;99.90
6627;DHT22;3349;49.830;8.748;2022-10-17T05:07:52;12.40;99.90
6627;DHT22;3349;49.830;8.748;2022-10-17T05:10:18;12.30;99.90
6627;DHT22;3349;49.830;8.748;2022-10-17T05:12:46;12.20;99.90
6627;DHT22;3349;49.830;8.748;2022-10-17T05:15:13;12.20;99.90
6627;DHT22;3349;49.830;8.748;2022-10-17T05:17:40;12.20;99.90
6627;DHT22;3349;49.830;8.748;2022-10-17T05:20:09;12.20;99.90
6627;DHT22;3349;49.830;8.748;2022-10-17T05:22:36;12.10;99.90
6627;DHT22;3349;49.830;8.748;2022-10-17T05:25:04;12.10;99.90
6627;DHT22;3349;49.830;8.748;2022-10-17T05:27:31;12.00;99.90
6627;DHT22;3349;49.830;8.748;2022-10-17T05:29:58;12.00;99.90
6627;DHT22;3349;49.830;8.748;2022-10-17T05:32:25;12.00;99.90
6627;DHT22;3349;49.830;8.748;2022-10-17T05:34:51;11.90;99.90
6627;DHT22;3349;49.830;8.748;2022-10-17T05:37:19;11.90;99.90
6627;DHT22;3349;49.830;8.748;2022-10-17T05:39:46;11.90;99.90
6627;DHT22;3349;49.830;8.748;2022-10-17T05:42:13;11.90;99.90
6627;DHT22;3349;49.830;8.748;2022-10-17T05:44:40;11.90;99.90
6627;DHT22;3349;49.830;8.748;2022-10-17T05:47:06;11.90;99.90
6627;DHT22;3349;49.830;8.748;2022-10-17T05:49:34;11.80;99.90
6627;DHT22;3349;49.830;8.748;2022-10-17T05:52:00;11.80;99.90
6627;DHT22;3349;49.830;8.748;2022-10-17T05:54:28;11.80;99.90
6627;DHT22;3349;49.830;8.748;2022-10-17T05:56:55;11.80;99.90
6627;DHT22;3349;49.830;8.748;2022-10-17T05:59:24;11.80;99.90
6627;DHT22;3349;49.830;8.748;2022-10-17T06:01:51;11.80;99.90
6627;DHT22;3349;49.830;8.748;2022-10-17T06:04:19;11.80;99.90
6627;DHT22;3349;49.830;8.748;2022-10-17T06:06:45;11.70;99.90
6627;DHT22;3349;49.830;8.748;2022-10-17T06:09:12;11.80;99.90
6627;DHT22;3349;49.830;8.748;2022-10-17T06:11:40;11.70;99.90
6627;DHT22;3349;49.830;8.748;2022-10-17T06:14:07;11.70;99.90
6627;DHT22;3349;49.830;8.748;2022-10-17T06:16:34;11.70;99.90
6627;DHT22;3349;49.830;8.748;2022-10-17T06:19:01;11.70;99.90
6627;DHT22;3349;49.830;8.748;2022-10-17T06:21:27;11.70;99.90
6627;DHT22;3349;49.830;8.748;2022-10-17T06:23:54;11.70;99.90
6627;DHT22;3349;49.830;8.748;2022-10-17T06:26:21;11.80;99.90
6627;DHT22;3349;49.830;8.748;2022-10-17T06:28:49;11.80;99.90
6627;DHT22;3349;49.830;8.748;2022-10-17T06:31:17;11.80;99.90
6627;DHT22;3349;49.830;8.748;2022-10-17T06:33:44;11.80;99.90
6627;DHT22;3349;49.830;8.748;2022-10-17T06:36:12;11.90;99.90
6627;DHT22;3349;49.830;8.748;2022-10-17T06:38:39;11.90;99.90
6627;DHT22;3349;49.830;8.748;2022-10-17T06:41:09;11.90;99.90
6627;DHT22;3349;49.830;8.748;2022-10-17T06:43:38;11.90;99.90
6627;DHT22;3349;49.830;8.748;2022-10-17T06:46:06;11.90;99.90
6627;DHT22;3349;49.830;8.748;2022-10-17T06:48:33;12.00;99.90
6627;DHT22;3349;49.830;8.748;2022-10-17T06:51:00;12.00;99.90
6627;DHT22;3349;49.830;8.748;2022-10-17T06:53:28;12.10;99.90
6627;DHT22;3349;49.830;8.748;2022-10-17T06:55:55;12.10;99.90
6627;DHT22;3349;49.830;8.748;2022-10-17T06:58:26;12.10;99.90
6627;DHT22;3349;49.830;8.748;2022-10-17T07:00:56;12.20;99.90
6627;DHT22;3349;49.830;8.748;2022-10-17T07:03:24;12.30;99.90
6627;DHT22;3349;49.830;8.748;2022-10-17T07:05:51;12.40;99.90
6627;DHT22;3349;49.830;8.748;2022-10-17T07:08:18;12.40;99.90
6627;DHT22;3349;49.830;8.748;2022-10-17T07:10:45;12.40;99.90
6627;DHT22;3349;49.830;8.748;2022-10-17T07:13:12;12.40;99.90
6627;DHT22;3349;49.830;8.748;2022-10-17T07:15:39;12.40;99.90
6627;DHT22;3349;49.830;8.748;2022-10-17T07:18:06;12.50;99.90
6627;DHT22;3349;49.830;8.748;2022-10-17T07:20:34;12.50;99.90
6627;DHT22;3349;49.830;8.748;2022-10-17T07:23:01;12.50;99.90
6627;DHT22;3349;49.830;8.748;2022-10-17T07:25:28;12.60;99.90
6627;DHT22;3349;49.830;8.748;2022-10-17T07:27:54;12.70;99.90
6627;DHT22;3349;49.830;8.748;2022-10-17T07:30:21;12.70;99.90
6627;DHT22;3349;49.830;8.748;2022-10-17T07:32:51;12.80;99.90
6627;DHT22;3349;49.830;8.748;2022-10-17T07:35:18;12.80;99.90
6627;DHT22;3349;49.830;8.748;2022-10-17T07:37:47;12.90;99.90
6627;DHT22;3349;49.830;8.748;2022-10-17T07:40:14;12.90;99.90
6627;DHT22;3349;49.830;8.748;2022-10-17T07:42:40;13.00;99.90
6627;DHT22;3349;49.830;8.748;2022-10-17T07:45:08;13.10;99.90
6627;DHT22;3349;49.830;8.748;2022-10-17T07:47:35;13.10;99.90
6627;DHT22;3349;49.830;8.748;2022-10-17T07:50:02;13.20;99.90
6627;DHT22;3349;49.830;8.748;2022-10-17T07:52:29;13.40;99.90
6627;DHT22;3349;49.830;8.748;2022-10-17T07:54:57;13.50;99.90
6627;DHT22;3349;49.830;8.748;2022-10-17T07:57:24;13.50;99.90
6627;DHT22;3349;49.830;8.748;2022-10-17T07:59:51;13.60;99.90
6627;DHT22;3349;49.830;8.748;2022-10-17T08:02:22;13.80;99.90
6627;DHT22;3349;49.830;8.748;2022-10-17T08:04:48;13.90;99.90
6627;DHT22;3349;49.830;8.748;2022-10-17T08:07:15;14.10;99.90
6627;DHT22;3349;49.830;8.748;2022-10-17T08:09:42;14.20;99.90
6627;DHT22;3349;49.830;8.748;2022-10-17T08:12:11;14.40;99.90
6627;DHT22;3349;49.830;8.748;2022-10-17T08:14:39;14.60;99.90
6627;DHT22;3349;49.830;8.748;2022-10-17T08:17:05;14.70;99.90
6627;DHT22;3349;49.830;8.748;2022-10-17T08:19:33;15.00;99.90
6627;DHT22;3349;49.830;8.748;2022-10-17T08:21:59;15.20;99.90
6627;DHT22;3349;49.830;8.748;2022-10-17T08:24:26;15.40;99.90
6627;DHT22;3349;49.830;8.748;2022-10-17T08:26:53;15.60;99.90
6627;DHT22;3349;49.830;8.748;2022-10-17T08:29:23;15.90;99.90
6627;DHT22;3349;49.830;8.748;2022-10-17T08:31:50;16.00;99.90
6627;DHT22;3349;49.830;8.748;2022-10-17T08:34:20;16.20;99.90
6627;DHT22;3349;49.830;8.748;2022-10-17T08:36:46;16.40;99.90
6627;DHT22;3349;49.830;8.748;2022-10-17T08:39:13;16.50;99.90
6627;DHT22;3349;49.830;8.748;2022-10-17T08:41:50;16.50;99.90
6627;DHT22;3349;49.830;8.748;2022-10-17T08:44:28;16.80;99.90
6627;DHT22;3349;49.830;8.748;2022-10-17T08:47:01;16.80;99.90
6627;DHT22;3349;49.830;8.748;2022-10-17T08:49:35;17.00;99.90
6627;DHT22;3349;49.830;8.748;2022-10-17T08:52:09;17.30;99.90
6627;DHT22;3349;49.830;8.748;2022-10-17T08:54:39;17.50;99.90
6627;DHT22;3349;49.830;8.748;2022-10-17T08:57:11;17.60;99.90
6627;DHT22;3349;49.830;8.748;2022-10-17T08:59:40;17.80;99.90
6627;DHT22;3349;49.830;8.748;2022-10-17T09:02:29;17.90;99.90
6627;DHT22;3349;49.830;8.748;2022-10-17T09:05:26;18.10;99.90
6627;DHT22;3349;49.830;8.748;2022-10-17T09:08:01;18.20;99.90
6627;DHT22;3349;49.830;8.748;2022-10-17T09:10:36;18.30;99.90
6627;DHT22;3349;49.830;8.748;2022-10-17T09:13:13;18.40;99.90
6627;DHT22;3349;49.830;8.748;2022-10-17T09:15:56;18.60;99.90
6627;DHT22;3349;49.830;8.748;2022-10-17T09:18:27;18.80;99.90
6627;DHT22;3349;49.830;8.748;2022-10-17T09:21:01;19.00;99.90
6627;DHT22;3349;49.830;8.748;2022-10-17T09:23:39;19.10;99.90
6627;DHT22;3349;49.830;8.748;2022-10-17T09:26:09;19.30;99.90
6627;DHT22;3349;49.830;8.748;2022-10-17T09:28:38;19.50;99.90
6627;DHT22;3349;49.830;8.748;2022-10-17T09:31:13;19.60;99.90
6627;DHT22;3349;49.830;8.748;2022-10-17T09:33:45;19.60;99.90
6627;DHT22;3349;49.830;8.748;2022-10-17T09:36:17;19.60;99.90
6627;DHT22;3349;49.830;8.748;2022-10-17T09:38:47;19.70;99.90
6627;DHT22;3349;49.830;8.748;2022-10-17T09:41:17;19.80;98.80
6627;DHT22;3349;49.830;8.748;2022-10-17T09:43:45;19.90;97.00
6627;DHT22;3349;49.830;8.748;2022-10-17T09:46:17;19.90;96.10
6627;DHT22;3349;49.830;8.748;2022-10-17T09:48:50;19.90;95.90
6627;DHT22;3349;49.830;8.748;2022-10-17T09:51:19;20.00;96.00
6627;DHT22;3349;49.830;8.748;2022-10-17T09:53:49;20.20;95.40
6627;DHT22;3349;49.830;8.748;2022-10-17T09:56:18;20.50;94.00
6627;DHT22;3349;49.830;8.748;2022-10-17T09:58:46;20.80;91.30
6627;DHT22;3349;49.830;8.748;2022-10-17T10:01:23;21.10;88.10
6627;DHT22;3349;49.830;8.748;2022-10-17T10:04:09;21.30;85.10
6627;DHT22;3349;49.830;8.748;2022-10-17T10:06:36;21.70;81.50
6627;DHT22;3349;49.830;8.748;2022-10-17T10:09:04;22.00;80.40
6627;DHT22;3349;49.830;8.748;2022-10-17T10:11:45;22.20;76.40
6627;DHT22;3349;49.830;8.748;2022-10-17T10:14:19;22.40;72.90
6627;DHT22;3349;49.830;8.748;2022-10-17T10:16:49;22.40;70.00
6627;DHT22;3349;49.830;8.748;2022-10-17T10:19:27;22.40;70.10
6627;DHT22;3349;49.830;8.748;2022-10-17T10:21:57;22.90;68.70
6627;DHT22;3349;49.830;8.748;2022-10-17T10:24:24;23.30;68.70
6627;DHT22;3349;49.830;8.748;2022-10-17T10:26:53;23.70;64.10
6627;DHT22;3349;49.830;8.748;2022-10-17T10:29:24;24.10;57.80
6627;DHT22;3349;49.830;8.748;2022-10-17T10:31:54;24.50;54.70
6627;DHT22;3349;49.830;8.748;2022-10-17T10:34:24;24.80;52.70
6627;DHT22;3349;49.830;8.748;2022-10-17T10:36:58;25.00;54.10
6627;DHT22;3349;49.830;8.748;2022-10-17T10:39:32;25.40;52.50
6627;DHT22;3349;49.830;8.748;2022-10-17T10:42:01;25.40;53.10
6627;DHT22;3349;49.830;8.748;2022-10-17T10:44:31;25.90;53.40
6627;DHT22;3349;49.830;8.748;2022-10-17T10:47:08;26.50;51.50
6627;DHT22;3349;49.830;8.748;2022-10-17T10:49:39;27.40;49.00
6627;DHT22;3349;49.830;8.748;2022-10-17T10:52:09;28.70;45.50
6627;DHT22;3349;49.830;8.748;2022-10-17T10:54:52;29.50;41.90
6627;DHT22;3349;49.830;8.748;2022-10-17T10:57:22;30.70;40.40
6627;DHT22;3349;49.830;8.748;2022-10-17T10:59:56;32.20;36.50
6627;DHT22;3349;49.830;8.748;2022-10-17T11:02:29;32.20;34.50
6627;DHT22;3349;49.830;8.748;2022-10-17T11:05:03;32.10;34.40
6627;DHT22;3349;49.830;8.748;2022-10-17T11:07:35;32.50;34.50
6627;DHT22;3349;49.830;8.748;2022-10-17T11:10:11;32.50;34.40
6627;DHT22;3349;49.830;8.748;2022-10-17T11:12:43;33.30;33.50
6627;DHT22;3349;49.830;8.748;2022-10-17T11:15:17;33.50;32.10
6627;DHT22;3349;49.830;8.748;2022-10-17T11:17:54;33.50;32.10
6627;DHT22;3349;49.830;8.748;2022-10-17T11:20:28;33.20;32.30
6627;DHT22;3349;49.830;8.748;2022-10-17T11:23:01;34.00;31.20
6627;DHT22;3349;49.830;8.748;2022-10-17T11:25:36;34.00;30.90
6627;DHT22;3349;49.830;8.748;2022-10-17T11:28:11;32.90;31.70
6627;DHT22;3349;49.830;8.748;2022-10-17T11:30:44;33.60;31.30
6627;DHT22;3349;49.830;8.748;2022-10-17T11:33:16;33.80;30.30
6627;DHT22;3349;49.830;8.748;2022-10-17T11:35:46;33.70;30.20
6627;DHT22;3349;49.830;8.748;2022-10-17T11:38:18;33.40;31.30
6627;DHT22;3349;49.830;8.748;2022-10-17T11:40:49;33.50;31.40
6627;DHT22;3349;49.830;8.748;2022-10-17T11:43:20;33.70;30.00
6627;DHT22;3349;49.830;8.748;2022-10-17T11:45:53;32.80;31.10
6627;DHT22;3349;49.830;8.748;2022-10-17T11:48:25;32.10;32.00
6627;DHT22;3349;49.830;8.748;2022-10-17T11:50:59;31.80;33.10
6627;DHT22;3349;49.830;8.748;2022-10-17T11:53:37;32.50;32.80
6627;DHT22;3349;49.830;8.748;2022-10-17T11:56:08;33.10;31.80
6627;DHT22;3349;49.830;8.748;2022-10-17T11:58:40;33.40;31.30
6627;DHT22;3349;49.830;8.748;2022-10-17T12:01:16;34.10;29.70
6627;DHT22;3349;49.830;8.748;2022-10-17T12:04:00;34.60;29.30
6627;DHT22;3349;49.830;8.748;2022-10-17T12:06:39;33.90;29.80
6627;DHT22;3349;49.830;8.748;2022-10-17T12:09:15;33.80;29.70
6627;DHT22;3349;49.830;8.748;2022-10-17T12:11:49;33.80;29.70
6627;DHT22;3349;49.830;8.748;2022-10-17T12:14:41;33.50;29.90
6627;DHT22;3349;49.830;8.748;2022-10-17T12:17:31;32.40;31.30
6627;DHT22;3349;49.830;8.748;2022-10-17T12:20:28;31.00;32.80
6627;DHT22;3349;49.830;8.748;2022-10-17T12:22:59;29.60;34.70
6627;DHT22;3349;49.830;8.748;2022-10-17T12:25:28;27.90;37.40
6627;DHT22;3349;49.830;8.748;2022-10-17T12:28:11;27.00;41.10
6627;DHT22;3349;49.830;8.748;2022-10-17T12:30:52;26.20;42.60
6627;DHT22;3349;49.830;8.748;2022-10-17T12:33:20;25.40;44.60
6627;DHT22;3349;49.830;8.748;2022-10-17T12:35:50;25.30;45.20
6627;DHT22;3349;49.830;8.748;2022-10-17T12:38:37;25.00;46.60
6627;DHT22;3349;49.830;8.748;2022-10-17T12:41:04;24.80;47.80
6627;DHT22;3349;49.830;8.748;2022-10-17T12:43:46;24.80;47.60
6627;DHT22;3349;49.830;8.748;2022-10-17T12:46:41;24.70;47.50
6627;DHT22;3349;49.830;8.748;2022-10-17T12:52:22;24.30;49.60
6627;DHT22;3349;49.830;8.748;2022-10-17T12:55:05;24.10;50.80
6627;DHT22;3349;49.830;8.748;2022-10-17T12:57:37;23.70;51.70
6627;DHT22;3349;49.830;8.748;2022-10-17T13:00:15;23.40;51.80
6627;DHT22;3349;49.830;8.748;2022-10-17T13:02:43;23.30;52.10
6627;DHT22;3349;49.830;8.748;2022-10-17T13:05:15;23.10;53.40
6627;DHT22;3349;49.830;8.748;2022-10-17T13:07:45;23.00;54.10
6627;DHT22;3349;49.830;8.748;2022-10-17T13:10:21;22.80;54.90
6627;DHT22;3349;49.830;8.748;2022-10-17T13:12:50;22.60;56.00
6627;DHT22;3349;49.830;8.748;2022-10-17T13:15:19;22.40;56.90
6627;DHT22;3349;49.830;8.748;2022-10-17T13:17:54;22.40;58.10
6627;DHT22;3349;49.830;8.748;2022-10-17T13:20:24;22.40;58.90
6627;DHT22;3349;49.830;8.748;2022-10-17T13:22:54;22.30;58.80
6627;DHT22;3349;49.830;8.748;2022-10-17T13:25:23;22.30;58.80
6627;DHT22;3349;49.830;8.748;2022-10-17T13:27:50;22.30;58.80
6627;DHT22;3349;49.830;8.748;2022-10-17T13:30:29;22.40;58.90
6627;DHT22;3349;49.830;8.748;2022-10-17T13:32:56;22.30;58.80
6627;DHT22;3349;49.830;8.748;2022-10-17T13:35:26;22.20;61.20
6627;DHT22;3349;49.830;8.748;2022-10-17T13:37:56;22.30;61.30
6627;DHT22;3349;49.830;8.748;2022-10-17T13:40:26;22.20;61.00
6627;DHT22;3349;49.830;8.748;2022-10-17T13:42:55;22.20;61.40
6627;DHT22;3349;49.830;8.748;2022-10-17T13:45:28;22.20;62.10
6627;DHT22;3349;49.830;8.748;2022-10-17T13:47:55;22.30;61.20
6627;DHT22;3349;49.830;8.748;2022-10-17T13:50:27;22.50;59.90
6627;DHT22;3349;49.830;8.748;2022-10-17T13:53:15;22.60;59.20
6627;DHT22;3349;49.830;8.748;2022-10-17T13:56:00;22.70;59.10
6627;DHT22;3349;49.830;8.748;2022-10-17T13:58:30;22.90;58.40
6627;DHT22;3349;49.830;8.748;2022-10-17T14:00:59;23.00;58.50
6627;DHT22;3349;49.830;8.748;2022-10-17T14:03:26;23.20;58.20
6627;DHT22;3349;49.830;8.748;2022-10-17T14:06:02;23.10;57.30
6627;DHT22;3349;49.830;8.748;2022-10-17T14:08:33;23.10;57.60
6627;DHT22;3349;49.830;8.748;2022-10-17T14:11:00;23.00;57.70
6627;DHT22;3349;49.830;8.748;2022-10-17T14:13:29;23.00;58.00
6627;DHT22;3349;49.830;8.748;2022-10-17T14:16:01;23.00;59.40
6627;DHT22;3349;49.830;8.748;2022-10-17T14:18:30;23.00;59.30
6627;DHT22;3349;49.830;8.748;2022-10-17T14:20:58;23.10;58.60
6627;DHT22;3349;49.830;8.748;2022-10-17T14:23:30;23.10;58.90
6627;DHT22;3349;49.830;8.748;2022-10-17T14:26:10;23.20;58.50
6627;DHT22;3349;49.830;8.748;2022-10-17T14:28:38;23.20;58.40
6627;DHT22;3349;49.830;8.748;2022-10-17T14:31:14;23.40;57.90
6627;DHT22;3349;49.830;8.748;2022-10-17T14:33:45;23.50;57.70
6627;DHT22;3349;49.830;8.748;2022-10-17T14:36:13;23.30;57.30
6627;DHT22;3349;49.830;8.748;2022-10-17T14:38:44;23.30;58.10
6627;DHT22;3349;49.830;8.748;2022-10-17T14:41:17;23.00;59.40
6627;DHT22;3349;49.830;8.748;2022-10-17T14:43:52;22.90;59.80
6627;DHT22;3349;49.830;8.748;2022-10-17T14:46:19;22.70;60.50
6627;DHT22;3349;49.830;8.748;2022-10-17T14:48:51;22.60;61.00
6627;DHT22;3349;49.830;8.748;2022-10-17T14:51:19;22.50;61.70
6627;DHT22;3349;49.830;8.748;2022-10-17T14:53:59;22.30;62.90
6627;DHT22;3349;49.830;8.748;2022-10-17T14:56:39;22.10;64.70
6627;DHT22;3349;49.830;8.748;2022-10-17T14:59:06;22.10;65.50
6627;DHT22;3349;49.830;8.748;2022-10-17T15:01:34;22.00;66.90
6627;DHT22;3349;49.830;8.748;2022-10-17T15:04:01;21.90;67.70
6627;DHT22;3349;49.830;8.748;2022-10-17T15:06:32;21.80;69.00
6627;DHT22;3349;49.830;8.748;2022-10-17T15:08:59;21.70;69.30
6627;DHT22;3349;49.830;8.748;2022-10-17T15:11:28;21.70;68.40
6627;DHT22;3349;49.830;8.748;2022-10-17T15:13:54;21.50;70.00
6627;DHT22;3349;49.830;8.748;2022-10-17T15:16:23;21.40;73.50
6627;DHT22;3349;49.830;8.748;2022-10-17T15:18:51;21.30;74.70
6627;DHT22;3349;49.830;8.748;2022-10-17T15:21:20;21.30;75.00
6627;DHT22;3349;49.830;8.748;2022-10-17T15:23:47;21.30;73.20
6627;DHT22;3349;49.830;8.748;2022-10-17T15:26:16;21.20;74.40
6627;DHT22;3349;49.830;8.748;2022-10-17T15:28:45;21.20;76.30
6627;DHT22;3349;49.830;8.748;2022-10-17T15:31:14;21.10;80.40
6627;DHT22;3349;49.830;8.748;2022-10-17T15:33:41;21.10;81.20
6627;DHT22;3349;49.830;8.748;2022-10-17T15:36:18;21.10;83.70
6627;DHT22;3349;49.830;8.748;2022-10-17T15:38:46;21.10;85.30
6627;DHT22;3349;49.830;8.748;2022-10-17T15:41:12;21.10;88.70
6627;DHT22;3349;49.830;8.748;2022-10-17T15:43:39;21.00;89.80
6627;DHT22;3349;49.830;8.748;2022-10-17T15:46:11;20.90;91.40
6627;DHT22;3349;49.830;8.748;2022-10-17T15:48:38;20.80;91.20
6627;DHT22;3349;49.830;8.748;2022-10-17T15:51:06;20.80;91.70
6627;DHT22;3349;49.830;8.748;2022-10-17T15:53:32;20.60;92.20
6627;DHT22;3349;49.830;8.748;2022-10-17T15:55:59;20.60;92.10
6627;DHT22;3349;49.830;8.748;2022-10-17T15:58:37;20.50;92.90
6627;DHT22;3349;49.830;8.748;2022-10-17T16:01:05;20.50;93.10
6627;DHT22;3349;49.830;8.748;2022-10-17T16:03:33;20.30;94.40
6627;DHT22;3349;49.830;8.748;2022-10-17T16:06:00;20.10;95.80
6627;DHT22;3349;49.830;8.748;2022-10-17T16:08:27;20.00;97.50
6627;DHT22;3349;49.830;8.748;2022-10-17T16:10:53;19.80;99.60
6627;DHT22;3349;49.830;8.748;2022-10-17T16:13:22;19.60;99.90
6627;DHT22;3349;49.830;8.748;2022-10-17T16:15:49;19.40;99.90
6627;DHT22;3349;49.830;8.748;2022-10-17T16:18:16;19.20;99.90
6627;DHT22;3349;49.830;8.748;2022-10-17T16:20:44;19.10;99.90
6627;DHT22;3349;49.830;8.748;2022-10-17T16:23:12;18.90;99.90
6627;DHT22;3349;49.830;8.748;2022-10-17T16:25:40;18.90;99.90